< < Back
Terminal Aerodrome Forecast


Current Version              Previous Versions:   1  2  3  4  5  6  7  8  9  

Terminal Aerodrome Forecast

783
FTUS42 KFFC 030523
TAFPDK
TAF
KPDK 030523Z 0306/0406 00000KT P6SM SCT050 BKN090
     FM030800 00000KT 5SM BR SCT009 BKN015
     FM031000 24004KT 6SM BR BKN006
     FM031400 27006KT P6SM OVC015 PROB30 0315/0317 -SHRA OVC030
     FM031700 30010KT P6SM BKN050
     FM040000 30007KT P6SM SCT100=

Latest METAR

964
SAUS70 KWBC 031600 RRE
MTRPDK
METAR KPDK 031553Z 27008KT 10SM SCT017 BKN025 OVC031 21/18 A2992 RMK AO2
SLP122 T02060178


USA.gov is the U.S. government's official web portal to all federal, state and local government web resources and services.